createdAt,value
2018-05-06T00:01:06.031Z,6.63
2018-05-06T00:03:34.188Z,7.03
2018-05-06T00:06:03.118Z,6.70
2018-05-06T00:08:31.261Z,6.60
2018-05-06T00:10:59.390Z,7.03
2018-05-06T00:13:27.536Z,6.10
2018-05-06T00:15:55.680Z,6.60
2018-05-06T00:18:23.825Z,7.00
2018-05-06T00:20:51.953Z,6.37
2018-05-06T00:23:20.137Z,6.60
2018-05-06T00:25:48.266Z,7.67
2018-05-06T00:28:16.399Z,7.57
2018-05-06T00:30:44.550Z,6.90
2018-05-06T00:33:12.696Z,6.20
2018-05-06T00:35:40.871Z,6.10
2018-05-06T00:38:09.007Z,6.00
2018-05-06T00:40:37.902Z,6.73
2018-05-06T00:43:06.829Z,6.10
2018-05-06T00:45:34.962Z,6.07
2018-05-06T00:48:03.862Z,6.20
2018-05-06T00:50:32.782Z,6.00
2018-05-06T00:53:00.908Z,7.20
2018-05-06T00:55:29.054Z,6.20
2018-05-06T00:57:57.177Z,6.87
2018-05-06T01:00:26.110Z,6.67
2018-05-06T01:02:55.022Z,6.30
2018-05-06T01:05:23.153Z,6.67
2018-05-06T01:07:51.324Z,5.90
2018-05-06T01:10:19.466Z,6.17
2018-05-06T01:12:48.368Z,5.63
2018-05-06T01:15:16.540Z,6.80
2018-05-06T01:17:44.678Z,6.90
2018-05-06T01:20:12.805Z,6.37
2018-05-06T01:22:40.930Z,6.23
2018-05-06T01:25:09.066Z,6.17
2018-05-06T01:27:37.220Z,6.77
2018-05-06T01:30:05.343Z,6.10
2018-05-06T01:32:33.473Z,6.03
2018-05-06T01:35:01.622Z,6.40
2018-05-06T01:37:29.800Z,6.50
2018-05-06T01:39:57.940Z,7.17
2018-05-06T01:42:26.865Z,6.40
2018-05-06T01:44:54.999Z,6.13
2018-05-06T01:47:23.916Z,5.40
2018-05-06T01:49:52.044Z,5.30
2018-05-06T01:52:20.200Z,6.07
2018-05-06T01:54:48.399Z,6.00
2018-05-06T01:57:16.540Z,6.23
2018-05-06T01:59:44.682Z,6.00
2018-05-06T02:02:12.872Z,7.20
2018-05-06T02:04:41.052Z,6.07
2018-05-06T02:07:09.181Z,5.00
2018-05-06T02:09:38.094Z,5.73
2018-05-06T02:12:06.217Z,5.93
2018-05-06T02:14:34.393Z,6.40
2018-05-06T02:17:02.524Z,6.00
2018-05-06T02:19:30.656Z,6.40
2018-05-06T02:21:59.550Z,5.70
2018-05-06T02:24:28.449Z,5.83
2018-05-06T02:26:56.601Z,5.63
2018-05-06T02:29:24.750Z,6.17
2018-05-06T02:31:52.909Z,5.60
2018-05-06T02:34:21.209Z,6.37
2018-05-06T02:36:49.352Z,7.07
2018-05-06T02:39:17.492Z,6.60
2018-05-06T02:41:45.654Z,6.10
2018-05-06T02:44:14.579Z,6.33
2018-05-06T02:46:42.705Z,6.20
2018-05-06T02:49:11.660Z,7.57
2018-05-06T02:51:40.446Z,5.70
2018-05-06T02:54:08.641Z,5.80
2018-05-06T02:56:36.771Z,6.97
2018-05-06T02:59:04.925Z,6.30
2018-05-06T03:01:33.068Z,6.00
2018-05-06T03:04:01.205Z,6.20
2018-05-06T03:06:30.135Z,6.17
2018-05-06T03:08:58.267Z,6.60
2018-05-06T03:11:26.407Z,6.40
2018-05-06T03:13:54.547Z,6.90
2018-05-06T03:16:22.724Z,5.90
2018-05-06T03:18:50.854Z,5.67
2018-05-06T03:21:18.984Z,5.43
2018-05-06T03:23:47.869Z,6.60
2018-05-06T03:26:16.046Z,5.50
2018-05-06T03:28:44.963Z,5.40
2018-05-06T03:31:13.092Z,6.17
2018-05-06T03:33:42.053Z,6.90
2018-05-06T03:36:10.196Z,5.70
2018-05-06T03:38:38.322Z,8.60
2018-05-06T03:41:06.471Z,6.07
2018-05-06T03:43:34.600Z,6.27
2018-05-06T03:46:02.752Z,5.50
2018-05-06T03:48:31.651Z,5.70
2018-05-06T03:51:00.542Z,6.00
2018-05-06T03:53:29.454Z,5.33
2018-05-06T03:59:35.230Z,5.77
2018-05-06T04:05:20.332Z,5.43
2018-05-06T04:07:48.453Z,5.07
2018-05-06T04:10:17.439Z,6.10
2018-05-06T04:12:45.600Z,5.13
2018-05-06T04:15:13.797Z,5.43
2018-05-06T04:17:42.698Z,5.60
2018-05-06T04:20:10.859Z,6.10
2018-05-06T04:22:39.759Z,5.70
2018-05-06T04:25:07.884Z,5.13
2018-05-06T04:27:36.070Z,4.83
2018-05-06T04:30:04.201Z,5.60
2018-05-06T04:32:32.339Z,5.30
2018-05-06T04:35:01.262Z,5.67
2018-05-06T04:37:29.389Z,5.13
2018-05-06T04:39:57.529Z,4.80
2018-05-06T04:42:25.649Z,4.60
2018-05-06T04:44:54.571Z,5.03
2018-05-06T04:47:22.715Z,5.40
2018-05-06T04:49:51.652Z,5.47
2018-05-06T04:52:19.801Z,4.53
2018-05-06T04:54:47.925Z,4.73
2018-05-06T04:57:16.863Z,4.53
2018-05-06T04:59:44.992Z,5.33
2018-05-06T05:02:13.902Z,5.10
2018-05-06T05:04:42.036Z,4.97
2018-05-06T05:07:10.172Z,5.20
2018-05-06T05:09:38.462Z,3.80
2018-05-06T05:12:06.525Z,4.60
2018-05-06T05:14:35.024Z,3.93
2018-05-06T05:17:05.405Z,4.30
2018-05-06T05:19:35.899Z,4.10
2018-05-06T05:22:04.040Z,4.20
2018-05-06T05:24:32.199Z,4.07
2018-05-06T05:27:00.349Z,3.90
2018-05-06T05:29:28.547Z,4.40
2018-05-06T05:31:56.689Z,4.67
2018-05-06T05:34:25.606Z,3.57
2018-05-06T05:36:53.742Z,4.30
2018-05-06T05:39:22.663Z,4.20
2018-05-06T05:41:50.805Z,4.37
2018-05-06T05:44:19.725Z,5.70
2018-05-06T05:46:47.853Z,4.30
2018-05-06T05:49:16.765Z,3.97
2018-05-06T05:51:45.688Z,4.30
2018-05-06T05:54:13.829Z,3.77
2018-05-06T05:56:42.763Z,3.83
2018-05-06T05:59:10.935Z,4.10
2018-05-06T06:01:39.113Z,4.57
2018-05-06T06:04:07.268Z,4.07
2018-05-06T06:06:35.411Z,3.57
2018-05-06T06:09:04.381Z,4.03
2018-05-06T06:11:32.546Z,3.60
2018-05-06T06:14:00.667Z,3.77
2018-05-06T06:16:28.852Z,3.80
2018-05-06T06:18:56.976Z,3.00
2018-05-06T06:21:25.870Z,3.50
2018-05-06T06:23:54.776Z,3.53
2018-05-06T06:26:22.907Z,2.70
2018-05-06T06:28:51.122Z,3.13
2018-05-06T06:31:19.255Z,3.67
2018-05-06T06:33:48.353Z,3.47
2018-05-06T06:36:20.245Z,3.30
2018-05-06T06:38:49.140Z,3.53
2018-05-06T06:41:17.272Z,3.20
2018-05-06T06:43:45.408Z,3.23
2018-05-06T06:46:13.555Z,3.30
2018-05-06T06:48:41.696Z,3.70
2018-05-06T06:51:09.826Z,3.13
2018-05-06T06:53:37.943Z,2.77
2018-05-06T06:56:06.088Z,2.73
2018-05-06T06:58:34.217Z,3.20
2018-05-06T07:01:02.356Z,2.90
2018-05-06T07:03:31.287Z,3.13
2018-05-06T07:05:59.512Z,2.93
2018-05-06T07:08:28.334Z,2.53
2018-05-06T07:10:57.240Z,2.60
2018-05-06T07:13:25.372Z,3.00
2018-05-06T07:15:53.570Z,2.93
2018-05-06T07:18:21.967Z,3.00
2018-05-06T07:20:50.109Z,1.93
2018-05-06T07:23:19.003Z,2.63
2018-05-06T07:25:47.932Z,2.60
2018-05-06T07:28:16.052Z,2.00
2018-05-06T07:30:44.168Z,2.63
2018-05-06T07:33:12.305Z,2.60
2018-05-06T07:35:41.210Z,2.23
2018-05-06T07:38:10.154Z,2.70
2018-05-06T07:40:38.296Z,2.37
2018-05-06T07:43:06.417Z,1.70
2018-05-06T07:45:34.583Z,2.20
2018-05-06T07:48:02.714Z,1.57
2018-05-06T07:50:30.844Z,1.80
2018-05-06T07:52:59.773Z,1.83
2018-05-06T07:55:27.920Z,2.00
2018-05-06T07:57:56.850Z,2.37
2018-05-06T08:00:24.989Z,1.70
2018-05-06T08:02:53.191Z,2.23
2018-05-06T08:05:21.325Z,2.77
2018-05-06T08:07:50.733Z,2.03
2018-05-06T08:10:18.912Z,2.90
2018-05-06T08:12:47.131Z,1.87
2018-05-06T08:15:15.249Z,1.90
2018-05-06T08:17:44.142Z,1.90
2018-05-06T08:20:13.025Z,1.40
2018-05-06T08:22:41.984Z,1.90
2018-05-06T08:25:10.130Z,1.63
2018-05-06T08:27:38.271Z,1.63
2018-05-06T08:30:06.459Z,2.10
2018-05-06T08:32:34.598Z,3.50
2018-05-06T08:35:02.754Z,1.70
2018-05-06T08:37:30.978Z,1.93
2018-05-06T08:39:59.078Z,1.77
2018-05-06T08:42:27.834Z,1.90
2018-05-06T08:44:55.991Z,1.40
2018-05-06T08:47:24.137Z,2.13
2018-05-06T08:49:53.057Z,1.90
2018-05-06T08:52:21.197Z,2.13
2018-05-06T08:54:49.336Z,2.13
2018-05-06T08:57:17.545Z,1.70
2018-05-06T08:59:45.725Z,1.80
2018-05-06T09:02:14.630Z,2.40
2018-05-06T09:04:42.791Z,1.93
2018-05-06T09:07:11.741Z,1.90
2018-05-06T09:09:39.936Z,1.67
2018-05-06T09:12:08.069Z,1.70
2018-05-06T09:14:36.246Z,1.87
2018-05-06T09:17:04.472Z,1.80
2018-05-06T09:19:33.402Z,1.40
2018-05-06T09:22:01.601Z,1.30
2018-05-06T09:24:29.728Z,1.30
2018-05-06T09:26:57.866Z,1.40
2018-05-06T09:29:26.081Z,1.10
2018-05-06T09:31:54.212Z,1.77
2018-05-06T09:34:22.346Z,1.40
2018-05-06T09:36:50.504Z,1.10
2018-05-06T09:39:18.642Z,1.20
2018-05-06T09:41:47.578Z,0.90
2018-05-06T09:44:15.717Z,1.30
2018-05-06T09:46:43.978Z,0.97
2018-05-06T09:49:12.166Z,1.13
2018-05-06T09:51:41.106Z,0.87
2018-05-06T09:54:09.220Z,1.00
2018-05-06T09:56:37.391Z,1.70
2018-05-06T09:59:06.306Z,1.60
2018-05-06T10:01:34.452Z,1.30
2018-05-06T10:04:02.598Z,1.50
2018-05-06T10:06:30.738Z,1.43
2018-05-06T10:08:58.904Z,1.27
2018-05-06T10:11:27.083Z,1.50
2018-05-06T10:13:55.247Z,1.70
2018-05-06T10:16:23.415Z,1.20
2018-05-06T10:18:51.612Z,1.53
2018-05-06T10:21:19.776Z,1.70
2018-05-06T10:23:47.927Z,1.27
2018-05-06T10:26:16.095Z,2.40
2018-05-06T10:28:44.232Z,1.13
2018-05-06T10:31:12.377Z,1.10
2018-05-06T10:33:40.544Z,1.37
2018-05-06T10:36:08.691Z,1.27
2018-05-06T10:38:36.827Z,1.30
2018-05-06T10:41:04.963Z,1.50
2018-05-06T10:43:33.105Z,1.13
2018-05-06T10:46:01.319Z,1.20
2018-05-06T10:48:29.484Z,1.20
2018-05-06T10:50:57.677Z,1.23
2018-05-06T10:53:25.848Z,1.20
2018-05-06T10:55:54.747Z,1.20
2018-05-06T10:58:22.893Z,1.17
2018-05-06T11:00:51.073Z,1.10
2018-05-06T11:03:19.209Z,2.53
2018-05-06T11:05:47.403Z,2.10
2018-05-06T11:08:15.602Z,3.07
2018-05-06T11:10:43.777Z,1.67
2018-05-06T11:13:11.912Z,1.60
2018-05-06T11:15:40.105Z,2.53
2018-05-06T11:18:08.241Z,1.20
2018-05-06T11:20:36.399Z,2.80
2018-05-06T11:23:05.331Z,3.60
2018-05-06T11:25:33.500Z,1.57
2018-05-06T11:28:01.658Z,1.73
2018-05-06T11:30:29.806Z,1.67
2018-05-06T11:32:58.708Z,1.40
2018-05-06T11:35:26.858Z,1.37
2018-05-06T11:37:55.944Z,1.70
2018-05-06T11:40:24.090Z,1.30
2018-05-06T11:42:52.230Z,1.50
2018-05-06T11:45:20.457Z,1.20
2018-05-06T11:47:48.596Z,1.10
2018-05-06T11:50:16.726Z,1.07
2018-05-06T11:52:45.685Z,1.33
2018-05-06T11:55:13.845Z,1.10
2018-05-06T11:57:41.985Z,1.30
2018-05-06T12:00:10.211Z,1.50
2018-05-06T12:02:38.363Z,1.33
2018-05-06T12:05:06.586Z,1.23
2018-05-06T12:07:34.731Z,1.10
2018-05-06T12:10:02.924Z,1.07
2018-05-06T12:12:31.017Z,0.80
2018-05-06T12:14:59.212Z,0.90
2018-05-06T12:17:28.119Z,1.30
2018-05-06T12:19:56.260Z,1.00
2018-05-06T12:22:24.393Z,1.00
2018-05-06T12:24:52.554Z,0.80
2018-05-06T12:27:20.688Z,0.93
2018-05-06T12:29:48.843Z,1.20
2018-05-06T12:32:17.039Z,2.30
2018-05-06T12:34:45.213Z,1.17
2018-05-06T12:37:13.387Z,1.20
2018-05-06T12:39:41.546Z,1.33
2018-05-06T12:42:09.786Z,1.17
2018-05-06T12:44:38.737Z,1.00
2018-05-06T12:47:06.902Z,1.10
2018-05-06T12:49:35.053Z,1.00
2018-05-06T12:52:03.515Z,0.83
2018-05-06T12:54:31.610Z,1.50
2018-05-06T12:56:59.757Z,0.90
2018-05-06T12:59:27.944Z,1.00
2018-05-06T13:01:56.082Z,1.10
2018-05-06T13:04:25.238Z,1.40
2018-05-06T13:06:53.377Z,1.00
2018-05-06T13:09:21.570Z,0.90
2018-05-06T13:11:50.739Z,1.40
2018-05-06T13:14:19.669Z,1.07
2018-05-06T13:16:47.860Z,0.90
2018-05-06T13:19:16.023Z,1.43
2018-05-06T13:21:44.167Z,1.57
2018-05-06T13:24:12.374Z,1.40
2018-05-06T13:26:41.245Z,1.23
2018-05-06T13:29:09.370Z,1.53
2018-05-06T13:31:37.520Z,0.87
2018-05-06T13:34:05.676Z,1.30
2018-05-06T13:36:33.800Z,1.20
2018-05-06T13:39:02.760Z,1.17
2018-05-06T13:41:30.890Z,1.23
2018-05-06T13:43:59.039Z,2.10
2018-05-06T13:46:28.169Z,1.40
2018-05-06T13:48:56.339Z,1.07
2018-05-06T13:51:24.513Z,1.40
2018-05-06T13:53:52.647Z,1.20
2018-05-06T13:56:21.566Z,1.20
2018-05-06T13:58:49.711Z,1.40
2018-05-06T14:01:18.618Z,1.63
2018-05-06T14:03:46.788Z,1.70
2018-05-06T14:06:14.915Z,1.80
2018-05-06T14:08:43.074Z,1.40
2018-05-06T14:11:11.207Z,1.30
2018-05-06T14:13:39.359Z,1.17
2018-05-06T14:16:08.257Z,1.40
2018-05-06T14:18:37.220Z,1.30
2018-05-06T14:21:05.418Z,1.00
2018-05-06T14:23:33.601Z,1.40
2018-05-06T14:26:01.805Z,0.87
2018-05-06T14:28:30.017Z,1.10
2018-05-06T14:30:58.928Z,1.70
2018-05-06T14:33:27.090Z,1.67
2018-05-06T14:35:56.024Z,1.13
2018-05-06T14:38:24.161Z,1.20
2018-05-06T14:40:52.289Z,1.20
2018-05-06T14:43:20.448Z,1.30
2018-05-06T14:45:48.575Z,1.70
2018-05-06T14:48:17.477Z,1.00
2018-05-06T14:50:45.628Z,1.50
2018-05-06T14:53:14.532Z,1.17
2018-05-06T14:55:42.673Z,1.20
2018-05-06T14:58:10.857Z,0.90
2018-05-06T15:00:39.083Z,1.20
2018-05-06T15:03:07.260Z,1.33
2018-05-06T15:05:35.377Z,1.73
2018-05-06T15:08:03.504Z,1.07
2018-05-06T15:10:31.722Z,1.13
2018-05-06T15:12:59.796Z,1.67
2018-05-06T15:15:27.966Z,2.83
2018-05-06T15:17:56.118Z,1.03
2018-05-06T15:20:24.276Z,1.13
2018-05-06T15:22:52.401Z,1.17
2018-05-06T15:25:21.308Z,1.37
2018-05-06T15:27:49.453Z,1.20
2018-05-06T15:30:18.332Z,1.10
2018-05-06T15:32:46.523Z,1.30
2018-05-06T15:35:15.459Z,1.23
2018-05-06T15:37:43.613Z,1.43
2018-05-06T15:40:11.818Z,1.87
2018-05-06T15:42:39.960Z,1.03
2018-05-06T15:45:08.150Z,1.93
2018-05-06T15:47:36.296Z,1.47
2018-05-06T15:50:04.443Z,1.37
2018-05-06T15:52:33.375Z,1.33
2018-05-06T15:55:01.496Z,1.07
2018-05-06T15:57:29.629Z,1.00
2018-05-06T15:59:57.769Z,1.33
2018-05-06T16:03:04.429Z,1.10
2018-05-06T16:05:33.326Z,1.37
2018-05-06T16:08:02.251Z,1.60
2018-05-06T16:10:30.390Z,1.30
2018-05-06T16:12:59.302Z,1.23
2018-05-06T16:15:27.462Z,1.40
2018-05-06T16:17:55.643Z,1.17
2018-05-06T16:20:23.828Z,1.20
2018-05-06T16:22:52.010Z,1.23
2018-05-06T16:25:20.151Z,1.20
2018-05-06T16:27:48.307Z,1.00
2018-05-06T16:30:17.215Z,1.33
2018-05-06T16:32:45.374Z,1.30
2018-05-06T16:35:14.280Z,1.20
2018-05-06T16:37:42.430Z,0.97
2018-05-06T16:40:11.438Z,1.33
2018-05-06T16:42:40.387Z,1.27
2018-05-06T16:45:08.512Z,1.07
2018-05-06T16:47:36.654Z,1.13
2018-05-06T16:50:05.603Z,1.40
2018-05-06T16:52:33.763Z,1.23
2018-05-06T16:55:01.904Z,1.20
2018-05-06T16:57:30.060Z,1.43
2018-05-06T16:59:59.024Z,1.10
2018-05-06T17:02:27.343Z,1.37
2018-05-06T17:04:56.259Z,1.90
2018-05-06T17:07:25.133Z,2.07
2018-05-06T17:09:53.271Z,1.23
2018-05-06T17:12:21.429Z,2.23
2018-05-06T17:14:49.607Z,3.27
2018-05-06T17:17:17.773Z,1.87
2018-05-06T17:19:46.027Z,1.33
2018-05-06T17:22:14.215Z,1.43
2018-05-06T17:24:42.350Z,1.30
2018-05-06T17:27:10.505Z,1.40
2018-05-06T17:29:39.393Z,1.40
2018-05-06T17:32:08.531Z,1.53
2018-05-06T17:34:36.686Z,1.60
2018-05-06T17:37:04.835Z,1.80
2018-05-06T17:39:33.754Z,1.80
2018-05-06T17:42:02.044Z,1.40
2018-05-06T17:44:30.262Z,1.10
2018-05-06T17:46:59.205Z,1.23
2018-05-06T17:49:27.340Z,1.20
2018-05-06T17:51:56.277Z,1.30
2018-05-06T17:54:24.405Z,1.10
2018-05-06T17:56:53.343Z,1.67
2018-05-06T17:59:21.468Z,1.50
2018-05-06T18:01:49.768Z,1.77
2018-05-06T18:04:17.918Z,1.77
2018-05-06T18:06:46.071Z,1.50
2018-05-06T18:09:14.244Z,1.40
2018-05-06T18:11:43.177Z,2.37
2018-05-06T18:14:11.311Z,1.27
2018-05-06T18:16:39.525Z,1.43
2018-05-06T18:19:07.850Z,1.87
2018-05-06T18:21:35.983Z,1.53
2018-05-06T18:24:04.248Z,1.50
2018-05-06T18:26:32.435Z,1.80
2018-05-06T18:29:00.575Z,1.30
2018-05-06T18:31:28.700Z,1.90
2018-05-06T18:33:56.850Z,2.27
2018-05-06T18:36:24.993Z,1.70
2018-05-06T18:38:53.168Z,1.90
2018-05-06T18:41:21.321Z,1.80
2018-05-06T18:43:50.259Z,1.83
2018-05-06T18:46:18.411Z,1.47
2018-05-06T18:48:46.650Z,1.80
2018-05-06T18:51:14.888Z,1.90
2018-05-06T18:53:43.144Z,2.00
2018-05-06T18:56:11.413Z,2.37
2018-05-06T18:58:39.850Z,2.17
2018-05-06T19:01:07.982Z,2.60
2018-05-06T19:03:36.163Z,2.17
2018-05-06T19:06:04.395Z,2.57
2018-05-06T19:08:32.613Z,2.23
2018-05-06T19:11:00.735Z,2.60
2018-05-06T19:13:29.660Z,2.30
2018-05-06T19:15:57.812Z,3.00
2018-05-06T19:18:25.964Z,2.10
2018-05-06T19:20:54.918Z,3.10
2018-05-06T19:23:23.171Z,2.23
2018-05-06T19:25:51.242Z,2.57
2018-05-06T19:28:19.479Z,2.30
2018-05-06T19:30:48.008Z,2.50
2018-05-06T19:33:16.277Z,3.60
2018-05-06T19:35:44.413Z,2.37
2018-05-06T19:38:12.571Z,3.00
2018-05-06T19:40:41.510Z,3.20
2018-05-06T19:43:09.688Z,3.07
2018-05-06T19:45:37.879Z,2.73
2018-05-06T19:48:06.032Z,3.00
2018-05-06T19:50:34.182Z,3.70
2018-05-06T19:53:02.314Z,3.70
2018-05-06T19:55:30.639Z,3.03
2018-05-06T19:57:58.848Z,3.37
2018-05-06T20:00:27.920Z,2.63
2018-05-06T20:02:56.157Z,3.00
2018-05-06T20:05:24.406Z,3.00
2018-05-06T20:07:52.601Z,3.33
2018-05-06T20:10:21.513Z,4.40
2018-05-06T20:12:49.695Z,3.70
2018-05-06T20:15:17.878Z,3.20
2018-05-06T20:17:46.035Z,3.67
2018-05-06T20:20:14.192Z,3.77
2018-05-06T20:22:42.332Z,3.43
2018-05-06T20:25:10.605Z,3.67
2018-05-06T20:27:38.778Z,3.67
2018-05-06T20:30:07.028Z,2.97
2018-05-06T20:32:35.172Z,3.87
2018-05-06T20:35:03.444Z,3.50
2018-05-06T20:37:31.611Z,4.23
2018-05-06T20:39:59.790Z,4.10
2018-05-06T20:42:28.302Z,3.53
2018-05-06T20:44:56.448Z,3.73
2018-05-06T20:47:24.604Z,3.80
2018-05-06T20:49:52.817Z,3.40
2018-05-06T20:52:20.964Z,2.80
2018-05-06T20:54:49.125Z,3.67
2018-05-06T20:57:17.270Z,4.20
2018-05-06T20:59:45.418Z,3.00
2018-05-06T21:02:13.559Z,3.67
2018-05-06T21:04:41.690Z,3.43
2018-05-06T21:07:10.595Z,3.37
2018-05-06T21:09:39.567Z,3.80
2018-05-06T21:12:07.751Z,3.60
2018-05-06T21:14:36.683Z,3.27
2018-05-06T21:17:04.827Z,3.00
2018-05-06T21:19:33.001Z,3.07
2018-05-06T21:22:01.129Z,3.43
2018-05-06T21:24:29.255Z,3.37
2018-05-06T21:26:57.390Z,2.90
2018-05-06T21:29:25.564Z,3.10
2018-05-06T21:31:53.691Z,2.80
2018-05-06T21:34:21.857Z,3.40
2018-05-06T21:36:50.080Z,3.20
2018-05-06T21:39:18.161Z,3.37
2018-05-06T21:41:47.061Z,3.43
2018-05-06T21:44:15.985Z,3.10
2018-05-06T21:46:44.118Z,3.83
2018-05-06T21:49:13.758Z,2.87
2018-05-06T21:51:41.926Z,3.40
2018-05-06T21:54:10.088Z,3.00
2018-05-06T21:56:38.289Z,2.67
2018-05-06T21:59:07.268Z,3.23
2018-05-06T22:01:35.434Z,3.60
2018-05-06T22:04:03.587Z,3.10
2018-05-06T22:06:32.565Z,2.90
2018-05-06T22:09:01.486Z,3.83
2018-05-06T22:11:29.657Z,3.13
2018-05-06T22:13:57.837Z,3.90
2018-05-06T22:16:26.034Z,3.27
2018-05-06T22:18:54.292Z,3.57
2018-05-06T22:21:22.516Z,3.37
2018-05-06T22:23:50.691Z,3.90
2018-05-06T22:26:18.985Z,4.30
2018-05-06T22:28:47.962Z,3.47
2018-05-06T22:31:16.955Z,3.87
2018-05-06T22:33:45.228Z,3.60
2018-05-06T22:36:13.363Z,3.40
2018-05-06T22:38:41.578Z,3.47
2018-05-06T22:41:09.772Z,3.80
2018-05-06T22:43:38.713Z,4.07
2018-05-06T22:46:06.868Z,3.23
2018-05-06T22:48:35.062Z,3.57
2018-05-06T22:51:03.237Z,3.60
2018-05-06T22:53:31.398Z,3.60
2018-05-06T22:55:59.553Z,3.97
2018-05-06T22:58:27.728Z,3.60
2018-05-06T23:00:56.631Z,3.63
2018-05-06T23:03:24.837Z,3.57
2018-05-06T23:05:53.030Z,3.90
2018-05-06T23:08:21.218Z,4.13
2018-05-06T23:10:49.373Z,3.40
2018-05-06T23:13:18.362Z,3.40
2018-05-06T23:15:47.273Z,2.97
2018-05-06T23:18:15.481Z,3.60
2018-05-06T23:20:43.624Z,3.70
2018-05-06T23:23:11.819Z,4.00
2018-05-06T23:25:39.962Z,3.40
2018-05-06T23:28:08.131Z,3.30
2018-05-06T23:30:37.048Z,3.80
2018-05-06T23:33:05.225Z,4.30
2018-05-06T23:35:33.460Z,3.73
2018-05-06T23:38:01.626Z,4.10
2018-05-06T23:40:30.591Z,3.83
2018-05-06T23:42:58.788Z,3.37
2018-05-06T23:45:27.739Z,3.23
2018-05-06T23:47:55.898Z,4.10
2018-05-06T23:50:24.062Z,3.53
2018-05-06T23:52:52.243Z,4.03
2018-05-06T23:55:20.409Z,4.03
2018-05-06T23:57:49.291Z,4.43
